sensor_id;sensor_type;location;lat;lon;timestamp;pressure;altitude;pressure_sealevel;temperature;humidity
6132;BME280;3097;42.692;23.278;2023-05-31T00:01:12;95062.25;;;18.45;89.75
6132;BME280;3097;42.692;23.278;2023-05-31T00:03:38;95054.16;;;18.42;90.19
6132;BME280;3097;42.692;23.278;2023-05-31T00:06:11;95064.13;;;18.40;90.57
6132;BME280;3097;42.692;23.278;2023-05-31T00:08:38;95068.78;;;18.43;90.59
6132;BME280;3097;42.692;23.278;2023-05-31T00:11:04;95041.16;;;18.22;90.34
6132;BME280;3097;42.692;23.278;2023-05-31T00:13:29;95047.41;;;18.31;90.59
6132;BME280;3097;42.692;23.278;2023-05-31T00:15:55;95064.13;;;18.40;90.85
6132;BME280;3097;42.692;23.278;2023-05-31T00:18:20;95064.38;;;18.38;91.18
6132;BME280;3097;42.692;23.278;2023-05-31T00:20:46;95056.03;;;18.31;91.31
6132;BME280;3097;42.692;23.278;2023-05-31T00:23:11;95068.31;;;18.31;91.79
6132;BME280;3097;42.692;23.278;2023-05-31T00:25:36;95059.44;;;18.27;92.27
6132;BME280;3097;42.692;23.278;2023-05-31T00:28:02;95065.97;;;18.24;92.33
6132;BME280;3097;42.692;23.278;2023-05-31T00:30:27;95063.34;;;18.24;92.33
6132;BME280;3097;42.692;23.278;2023-05-31T00:32:53;95062.31;;;18.25;92.69
6132;BME280;3097;42.692;23.278;2023-05-31T00:35:18;95031.31;;;18.03;93.04
6132;BME280;3097;42.692;23.278;2023-05-31T00:37:44;95059.47;;;18.16;93.32
6132;BME280;3097;42.692;23.278;2023-05-31T00:40:09;95048.00;;;18.07;93.19
6132;BME280;3097;42.692;23.278;2023-05-31T00:42:35;95067.31;;;18.11;93.21
6132;BME280;3097;42.692;23.278;2023-05-31T00:45:00;95072.75;;;18.05;93.43
6132;BME280;3097;42.692;23.278;2023-05-31T00:47:26;95034.97;;;17.82;93.73
6132;BME280;3097;42.692;23.278;2023-05-31T00:49:53;95064.44;;;18.03;93.68
6132;BME280;3097;42.692;23.278;2023-05-31T00:52:19;95068.84;;;18.07;93.90
6132;BME280;3097;42.692;23.278;2023-05-31T00:54:45;95072.25;;;18.03;93.95
6132;BME280;3097;42.692;23.278;2023-05-31T00:57:11;95070.16;;;18.00;94.30
6132;BME280;3097;42.692;23.278;2023-05-31T00:59:36;95068.88;;;18.02;94.48
6132;BME280;3097;42.692;23.278;2023-05-31T01:02:02;95076.16;;;18.00;94.57
6132;BME280;3097;42.692;23.278;2023-05-31T01:04:31;95071.97;;;18.04;94.58
6132;BME280;3097;42.692;23.278;2023-05-31T01:06:56;94995.84;;;17.52;94.80
6132;BME280;3097;42.692;23.278;2023-05-31T01:09:27;95062.34;;;17.95;95.05
6132;BME280;3097;42.692;23.278;2023-05-31T01:15:19;95075.13;;;18.06;95.14
6132;BME280;3097;42.692;23.278;2023-05-31T01:20:16;95067.53;;;18.05;95.36
6132;BME280;3097;42.692;23.278;2023-05-31T01:28:09;95069.63;;;18.08;95.60
6132;BME280;3097;42.692;23.278;2023-05-31T01:30:37;95072.25;;;18.08;95.38
6132;BME280;3097;42.692;23.278;2023-05-31T01:33:04;95073.03;;;18.08;95.41
6132;BME280;3097;42.692;23.278;2023-05-31T01:35:33;95065.72;;;18.10;95.29
6132;BME280;3097;42.692;23.278;2023-05-31T01:37:58;95042.53;;;17.94;95.49
6132;BME280;3097;42.692;23.278;2023-05-31T01:40:24;95072.00;;;18.09;95.49
6132;BME280;3097;42.692;23.278;2023-05-31T01:42:49;95063.91;;;18.06;95.47
6132;BME280;3097;42.692;23.278;2023-05-31T01:45:16;95064.69;;;18.06;95.20
6132;BME280;3097;42.692;23.278;2023-05-31T01:47:42;95055.81;;;17.97;95.74
6132;BME280;3097;42.692;23.278;2023-05-31T01:50:10;95066.50;;;18.06;95.91
6132;BME280;3097;42.692;23.278;2023-05-31T01:52:36;95068.59;;;17.99;95.79
6132;BME280;3097;42.692;23.278;2023-05-31T01:55:02;94998.97;;;17.54;96.16
6132;BME280;3097;42.692;23.278;2023-05-31T01:57:29;95069.66;;;18.03;96.06
6132;BME280;3097;42.692;23.278;2023-05-31T01:59:58;95076.16;;;18.00;96.50
6132;BME280;3097;42.692;23.278;2023-05-31T02:02:25;95052.69;;;17.90;96.18
6132;BME280;3097;42.692;23.278;2023-05-31T02:05:04;95067.31;;;18.01;95.89
6132;BME280;3097;42.692;23.278;2023-05-31T02:07:29;95072.78;;;18.00;96.42
6132;BME280;3097;42.692;23.278;2023-05-31T02:09:56;95051.41;;;17.83;96.89
6132;BME280;3097;42.692;23.278;2023-05-31T02:12:22;95082.44;;;17.99;96.93
6132;BME280;3097;42.692;23.278;2023-05-31T02:14:47;95081.41;;;17.95;96.85
6132;BME280;3097;42.692;23.278;2023-05-31T02:17:13;95080.63;;;17.95;97.03
6132;BME280;3097;42.692;23.278;2023-05-31T02:19:39;95080.63;;;17.95;96.71
6132;BME280;3097;42.692;23.278;2023-05-31T02:22:06;95080.88;;;17.93;96.71
6132;BME280;3097;42.692;23.278;2023-05-31T02:24:32;95079.31;;;17.87;97.27
6132;BME280;3097;42.692;23.278;2023-05-31T02:26:57;95073.84;;;17.89;97.07
6132;BME280;3097;42.692;23.278;2023-05-31T02:29:23;95074.09;;;17.87;96.87
6132;BME280;3097;42.692;23.278;2023-05-31T02:31:48;95084.53;;;17.87;96.95
6132;BME280;3097;42.692;23.278;2023-05-31T02:34:14;95079.84;;;17.89;96.76
6132;BME280;3097;42.692;23.278;2023-05-31T02:36:41;95081.13;;;17.87;97.25
6132;BME280;3097;42.692;23.278;2023-05-31T02:39:06;95087.13;;;17.87;97.18
6132;BME280;3097;42.692;23.278;2023-05-31T02:41:32;95079.56;;;17.86;96.94
6132;BME280;3097;42.692;23.278;2023-05-31T02:43:57;95078.28;;;17.88;96.71
6132;BME280;3097;42.692;23.278;2023-05-31T02:46:22;95052.19;;;17.68;96.64
6132;BME280;3097;42.692;23.278;2023-05-31T02:48:48;95069.41;;;17.79;96.76
6132;BME280;3097;42.692;23.278;2023-05-31T02:51:13;95073.31;;;17.82;96.72
6132;BME280;3097;42.692;23.278;2023-05-31T02:53:39;95069.66;;;17.77;96.95
6132;BME280;3097;42.692;23.278;2023-05-31T02:56:04;95070.97;;;17.80;96.87
6132;BME280;3097;42.692;23.278;2023-05-31T02:58:30;95078.25;;;17.78;97.06
6132;BME280;3097;42.692;23.278;2023-05-31T03:00:55;95081.91;;;17.82;96.85
6132;BME280;3097;42.692;23.278;2023-05-31T03:03:21;95078.25;;;17.78;97.27
6132;BME280;3097;42.692;23.278;2023-05-31T03:05:47;95081.16;;;17.82;97.29
6132;BME280;3097;42.692;23.278;2023-05-31T03:08:12;95072.78;;;17.74;97.29
6132;BME280;3097;42.692;23.278;2023-05-31T03:10:38;95081.13;;;17.76;97.24
6132;BME280;3097;42.692;23.278;2023-05-31T03:13:03;95081.91;;;17.77;97.24
6132;BME280;3097;42.692;23.278;2023-05-31T03:15:29;95076.69;;;17.72;97.16
6132;BME280;3097;42.692;23.278;2023-05-31T03:17:54;95085.31;;;17.72;97.24
6132;BME280;3097;42.692;23.278;2023-05-31T03:20:20;95084.00;;;17.75;97.31
6132;BME280;3097;42.692;23.278;2023-05-31T03:22:46;95076.69;;;17.67;97.48
6132;BME280;3097;42.692;23.278;2023-05-31T03:25:11;95079.03;;;17.68;97.57
6132;BME280;3097;42.692;23.278;2023-05-31T03:27:37;95073.03;;;17.58;97.49
6132;BME280;3097;42.692;23.278;2023-05-31T03:30:02;95094.97;;;17.72;97.71
6132;BME280;3097;42.692;23.278;2023-05-31T03:32:28;95017.97;;;17.24;97.72
6132;BME280;3097;42.692;23.278;2023-05-31T03:34:53;95077.94;;;17.59;97.84
6132;BME280;3097;42.692;23.278;2023-05-31T03:37:19;95096.78;;;17.76;97.80
6132;BME280;3097;42.692;23.278;2023-05-31T03:39:44;95095.22;;;17.70;98.20
6132;BME280;3097;42.692;23.278;2023-05-31T03:42:10;95102.78;;;17.77;98.02
6132;BME280;3097;42.692;23.278;2023-05-31T03:44:35;95098.09;;;17.79;97.72
6132;BME280;3097;42.692;23.278;2023-05-31T03:47:00;95098.09;;;17.79;97.86
6132;BME280;3097;42.692;23.278;2023-05-31T03:49:26;95094.69;;;17.78;97.75
6132;BME280;3097;42.692;23.278;2023-05-31T03:51:51;95103.84;;;17.81;97.70
6132;BME280;3097;42.692;23.278;2023-05-31T03:54:17;95103.28;;;17.84;97.83
6132;BME280;3097;42.692;23.278;2023-05-31T03:56:42;95104.88;;;17.85;97.92
6132;BME280;3097;42.692;23.278;2023-05-31T03:59:08;95088.19;;;17.71;97.97
6132;BME280;3097;42.692;23.278;2023-05-31T04:01:34;95118.44;;;17.87;98.36
6132;BME280;3097;42.692;23.278;2023-05-31T04:03:59;95112.44;;;17.92;97.82
6132;BME280;3097;42.692;23.278;2023-05-31T04:06:25;95112.69;;;17.95;97.86
6132;BME280;3097;42.692;23.278;2023-05-31T04:08:52;95103.56;;;17.93;98.07
6132;BME280;3097;42.692;23.278;2023-05-31T04:11:17;95108.53;;;17.94;98.13
6132;BME280;3097;42.692;23.278;2023-05-31T04:13:43;95108.25;;;18.01;97.82
6132;BME280;3097;42.692;23.278;2023-05-31T04:16:08;95115.84;;;18.02;98.00
6132;BME280;3097;42.692;23.278;2023-05-31T04:18:34;95087.38;;;17.86;97.92
6132;BME280;3097;42.692;23.278;2023-05-31T04:20:59;95090.78;;;17.96;98.17
6132;BME280;3097;42.692;23.278;2023-05-31T04:23:26;95113.19;;;18.12;97.46
6132;BME280;3097;42.692;23.278;2023-05-31T04:25:51;95118.41;;;18.12;98.68
6132;BME280;3097;42.692;23.278;2023-05-31T04:28:17;95087.91;;;17.98;98.39
6132;BME280;3097;42.692;23.278;2023-05-31T04:30:44;95129.63;;;18.38;97.56
6132;BME280;3097;42.692;23.278;2023-05-31T04:33:11;95131.19;;;18.44;96.82
6132;BME280;3097;42.692;23.278;2023-05-31T04:35:36;95125.94;;;18.49;96.70
6132;BME280;3097;42.692;23.278;2023-05-31T04:38:01;95134.56;;;18.55;96.70
6132;BME280;3097;42.692;23.278;2023-05-31T04:40:28;95131.69;;;18.51;96.46
6132;BME280;3097;42.692;23.278;2023-05-31T04:42:58;95139.56;;;18.57;96.51
6132;BME280;3097;42.692;23.278;2023-05-31T04:45:26;95124.13;;;18.55;96.28
6132;BME280;3097;42.692;23.278;2023-05-31T04:47:52;95136.41;;;18.60;96.98
6132;BME280;3097;42.692;23.278;2023-05-31T04:50:18;95134.56;;;18.60;96.96
6132;BME280;3097;42.692;23.278;2023-05-31T04:52:44;95136.41;;;18.70;96.18
6132;BME280;3097;42.692;23.278;2023-05-31T04:55:10;95141.34;;;18.76;96.43
6132;BME280;3097;42.692;23.278;2023-05-31T04:57:35;95107.69;;;18.60;95.19
6132;BME280;3097;42.692;23.278;2023-05-31T05:00:01;95148.06;;;18.87;95.13
6132;BME280;3097;42.692;23.278;2023-05-31T05:02:26;95150.44;;;18.94;96.25
6132;BME280;3097;42.692;23.278;2023-05-31T05:04:52;95127.72;;;18.84;95.63
6132;BME280;3097;42.692;23.278;2023-05-31T05:07:18;95146.97;;;19.09;94.47
6132;BME280;3097;42.692;23.278;2023-05-31T05:09:43;95156.88;;;19.17;94.22
6132;BME280;3097;42.692;23.278;2023-05-31T05:12:10;95156.09;;;19.16;94.21
6132;BME280;3097;42.692;23.278;2023-05-31T05:14:36;95164.97;;;19.20;93.64
6132;BME280;3097;42.692;23.278;2023-05-31T05:17:01;95158.44;;;19.23;93.24
6132;BME280;3097;42.692;23.278;2023-05-31T05:19:27;95166.00;;;19.24;93.38
6132;BME280;3097;42.692;23.278;2023-05-31T05:21:54;95169.38;;;19.25;92.49
6132;BME280;3097;42.692;23.278;2023-05-31T05:24:20;95142.03;;;19.07;93.49
6132;BME280;3097;42.692;23.278;2023-05-31T05:26:46;95175.13;;;19.32;92.34
6132;BME280;3097;42.692;23.278;2023-05-31T05:29:11;95140.94;;;19.13;89.75
6132;BME280;3097;42.692;23.278;2023-05-31T05:31:36;95173.03;;;19.29;90.84
6132;BME280;3097;42.692;23.278;2023-05-31T05:34:02;95176.44;;;19.29;90.16
6132;BME280;3097;42.692;23.278;2023-05-31T05:36:27;95179.56;;;19.31;89.89
6132;BME280;3097;42.692;23.278;2023-05-31T05:38:53;95181.41;;;19.31;90.13
6132;BME280;3097;42.692;23.278;2023-05-31T05:41:18;95175.13;;;19.27;91.56
6132;BME280;3097;42.692;23.278;2023-05-31T05:43:44;95180.06;;;19.39;91.52
6132;BME280;3097;42.692;23.278;2023-05-31T05:46:10;95183.44;;;19.44;91.70
6132;BME280;3097;42.692;23.278;2023-05-31T05:48:35;95185.50;;;19.52;92.73
6132;BME280;3097;42.692;23.278;2023-05-31T05:51:01;95186.47;;;19.66;89.37
6132;BME280;3097;42.692;23.278;2023-05-31T05:53:26;95182.81;;;19.67;88.38
6132;BME280;3097;42.692;23.278;2023-05-31T05:55:52;95190.16;;;19.65;88.21
6132;BME280;3097;42.692;23.278;2023-05-31T05:58:18;95184.91;;;19.65;88.42
6132;BME280;3097;42.692;23.278;2023-05-31T06:00:47;95159.34;;;19.52;88.66
6132;BME280;3097;42.692;23.278;2023-05-31T06:03:13;95195.31;;;19.76;87.23
6132;BME280;3097;42.692;23.278;2023-05-31T06:05:39;95188.56;;;19.69;88.38
6132;BME280;3097;42.692;23.278;2023-05-31T06:08:05;95192.72;;;19.76;88.92
6132;BME280;3097;42.692;23.278;2023-05-31T06:10:30;95188.75;;;19.78;88.85
6132;BME280;3097;42.692;23.278;2023-05-31T06:12:56;95188.97;;;19.87;90.43
6132;BME280;3097;42.692;23.278;2023-05-31T06:15:22;95190.44;;;20.03;87.91
6132;BME280;3097;42.692;23.278;2023-05-31T06:17:47;95192.78;;;20.04;88.06
6132;BME280;3097;42.692;23.278;2023-05-31T06:20:15;95190.13;;;20.09;88.44
6132;BME280;3097;42.692;23.278;2023-05-31T06:22:42;95191.66;;;20.16;87.80
6132;BME280;3097;42.692;23.278;2023-05-31T06:25:07;95186.81;;;20.33;88.45
6132;BME280;3097;42.692;23.278;2023-05-31T06:27:33;95195.63;;;20.47;85.46
6132;BME280;3097;42.692;23.278;2023-05-31T06:29:59;95174.72;;;20.42;85.49
6132;BME280;3097;42.692;23.278;2023-05-31T06:32:26;95183.75;;;20.60;85.68
6132;BME280;3097;42.692;23.278;2023-05-31T06:34:52;95179.56;;;20.59;84.30
6132;BME280;3097;42.692;23.278;2023-05-31T06:37:18;95197.75;;;20.74;83.84
6132;BME280;3097;42.692;23.278;2023-05-31T06:39:44;95160.91;;;20.31;83.40
6132;BME280;3097;42.692;23.278;2023-05-31T06:42:09;95189.00;;;20.60;82.56
6132;BME280;3097;42.692;23.278;2023-05-31T06:44:35;95187.41;;;20.59;83.19
6132;BME280;3097;42.692;23.278;2023-05-31T06:47:01;95192.66;;;20.59;83.29
6132;BME280;3097;42.692;23.278;2023-05-31T06:49:26;95196.78;;;20.65;83.09
6132;BME280;3097;42.692;23.278;2023-05-31T06:51:53;95179.50;;;20.64;82.78
6132;BME280;3097;42.692;23.278;2023-05-31T06:54:18;95188.84;;;20.75;83.16
6132;BME280;3097;42.692;23.278;2023-05-31T06:56:44;95180.41;;;20.78;83.06
6132;BME280;3097;42.692;23.278;2023-05-31T06:59:09;95189.69;;;20.94;81.38
6132;BME280;3097;42.692;23.278;2023-05-31T07:01:35;95192.91;;;20.86;80.60
6132;BME280;3097;42.692;23.278;2023-05-31T07:04:00;95183.09;;;20.73;81.89
6132;BME280;3097;42.692;23.278;2023-05-31T07:06:26;95170.91;;;20.58;81.06
6132;BME280;3097;42.692;23.278;2023-05-31T07:08:51;95195.41;;;20.72;82.58
6132;BME280;3097;42.692;23.278;2023-05-31T07:11:17;95198.81;;;20.73;81.74
6132;BME280;3097;42.692;23.278;2023-05-31T07:13:43;95195.56;;;20.57;81.38
6132;BME280;3097;42.692;23.278;2023-05-31T07:16:08;95194.50;;;20.58;83.23
6132;BME280;3097;42.692;23.278;2023-05-31T07:18:34;95184.41;;;20.70;82.44
6132;BME280;3097;42.692;23.278;2023-05-31T07:20:59;95185.91;;;20.81;80.88
6132;BME280;3097;42.692;23.278;2023-05-31T07:23:26;95195.44;;;20.96;80.80
6132;BME280;3097;42.692;23.278;2023-05-31T07:25:51;95179.13;;;20.99;78.70
6132;BME280;3097;42.692;23.278;2023-05-31T07:28:17;95191.97;;;21.01;81.12
6132;BME280;3097;42.692;23.278;2023-05-31T07:30:42;95186.34;;;21.12;78.73
6132;BME280;3097;42.692;23.278;2023-05-31T07:33:07;95194.78;;;21.09;78.22
6132;BME280;3097;42.692;23.278;2023-05-31T07:35:33;95180.72;;;21.00;78.12
6132;BME280;3097;42.692;23.278;2023-05-31T07:37:58;95180.66;;;21.05;79.26
6132;BME280;3097;42.692;23.278;2023-05-31T07:40:24;95188.94;;;21.17;80.37
6132;BME280;3097;42.692;23.278;2023-05-31T07:42:49;95186.50;;;21.26;78.63
6132;BME280;3097;42.692;23.278;2023-05-31T07:45:15;95188.53;;;21.29;78.92
6132;BME280;3097;42.692;23.278;2023-05-31T07:47:41;95172.09;;;21.23;78.44
6132;BME280;3097;42.692;23.278;2023-05-31T07:50:07;95171.41;;;21.37;78.30
6132;BME280;3097;42.692;23.278;2023-05-31T07:52:32;95190.78;;;21.59;77.01
6132;BME280;3097;42.692;23.278;2023-05-31T07:54:58;95188.78;;;21.51;77.13
6132;BME280;3097;42.692;23.278;2023-05-31T07:57:23;95189.56;;;21.52;76.81
6132;BME280;3097;42.692;23.278;2023-05-31T07:59:49;95191.13;;;21.53;76.61
6132;BME280;3097;42.692;23.278;2023-05-31T08:02:18;95172.78;;;21.29;78.39
6132;BME280;3097;42.692;23.278;2023-05-31T08:04:43;95183.53;;;21.51;77.28
6132;BME280;3097;42.692;23.278;2023-05-31T08:07:09;95186.56;;;21.63;76.76
6132;BME280;3097;42.692;23.278;2023-05-31T08:09:34;95166.34;;;21.64;75.65
6132;BME280;3097;42.692;23.278;2023-05-31T08:12:00;95167.19;;;21.78;75.54
6132;BME280;3097;42.692;23.278;2023-05-31T08:14:28;95186.00;;;22.04;75.91
6132;BME280;3097;42.692;23.278;2023-05-31T08:16:53;95177.34;;;22.04;74.73
6132;BME280;3097;42.692;23.278;2023-05-31T08:19:19;95176.91;;;22.15;74.79
6132;BME280;3097;42.692;23.278;2023-05-31T08:21:45;95171.38;;;22.17;74.47
6132;BME280;3097;42.692;23.278;2023-05-31T08:24:11;95185.81;;;22.33;73.45
6132;BME280;3097;42.692;23.278;2023-05-31T08:26:37;95180.00;;;22.36;73.91
6132;BME280;3097;42.692;23.278;2023-05-31T08:29:02;95175.44;;;22.42;73.51
6132;BME280;3097;42.692;23.278;2023-05-31T08:31:28;95180.53;;;22.52;72.90
6132;BME280;3097;42.692;23.278;2023-05-31T08:33:58;95169.81;;;22.48;72.88
6132;BME280;3097;42.692;23.278;2023-05-31T08:36:24;95171.97;;;22.46;73.81
6132;BME280;3097;42.692;23.278;2023-05-31T08:38:50;95167.22;;;22.62;73.51
6132;BME280;3097;42.692;23.278;2023-05-31T08:41:17;95147.66;;;22.68;72.72
6132;BME280;3097;42.692;23.278;2023-05-31T08:43:44;95161.91;;;22.94;73.31
6132;BME280;3097;42.692;23.278;2023-05-31T08:46:10;95156.09;;;23.11;71.24
6132;BME280;3097;42.692;23.278;2023-05-31T08:51:08;95159.41;;;23.30;73.03
6132;BME280;3097;42.692;23.278;2023-05-31T08:53:34;95154.31;;;23.34;73.32
6132;BME280;3097;42.692;23.278;2023-05-31T08:56:00;95147.50;;;23.33;70.82
6132;BME280;3097;42.692;23.278;2023-05-31T08:58:29;95141.06;;;23.25;70.47
6132;BME280;3097;42.692;23.278;2023-05-31T09:00:55;95135.13;;;23.20;72.26
6132;BME280;3097;42.692;23.278;2023-05-31T09:03:21;95125.28;;;23.25;71.51
6132;BME280;3097;42.692;23.278;2023-05-31T09:05:47;95137.72;;;23.47;71.13
6132;BME280;3097;42.692;23.278;2023-05-31T09:08:13;95137.72;;;23.47;69.13
6132;BME280;3097;42.692;23.278;2023-05-31T09:10:39;95126.03;;;23.39;69.03
6132;BME280;3097;42.692;23.278;2023-05-31T09:13:06;95131.13;;;23.49;69.12
6132;BME280;3097;42.692;23.278;2023-05-31T09:15:32;95130.44;;;23.58;68.91
6132;BME280;3097;42.692;23.278;2023-05-31T09:18:12;95121.72;;;23.71;69.24
6132;BME280;3097;42.692;23.278;2023-05-31T09:20:38;95121.56;;;23.89;66.22
6132;BME280;3097;42.692;23.278;2023-05-31T09:23:03;95122.38;;;23.99;66.96
6132;BME280;3097;42.692;23.278;2023-05-31T09:25:45;95096.72;;;23.82;66.95
6132;BME280;3097;42.692;23.278;2023-05-31T09:28:11;95116.34;;;23.98;67.67
6132;BME280;3097;42.692;23.278;2023-05-31T09:30:37;95105.03;;;23.75;66.64
6132;BME280;3097;42.692;23.278;2023-05-31T09:33:03;95100.16;;;23.69;67.62
6132;BME280;3097;42.692;23.278;2023-05-31T09:35:28;95111.09;;;23.98;67.16
6132;BME280;3097;42.692;23.278;2023-05-31T09:37:54;95108.25;;;24.17;65.49
6132;BME280;3097;42.692;23.278;2023-05-31T09:40:24;95102.44;;;24.28;64.97
6132;BME280;3097;42.692;23.278;2023-05-31T09:42:51;95104.16;;;24.24;65.35
6132;BME280;3097;42.692;23.278;2023-05-31T09:45:17;95106.88;;;24.19;65.47
6132;BME280;3097;42.692;23.278;2023-05-31T09:47:43;95098.16;;;24.10;66.26
6132;BME280;3097;42.692;23.278;2023-05-31T09:50:35;95080.25;;;23.99;65.65
6132;BME280;3097;42.692;23.278;2023-05-31T09:53:04;95102.88;;;24.00;64.82
6132;BME280;3097;42.692;23.278;2023-05-31T09:55:39;95068.53;;;23.46;65.82
6132;BME280;3097;42.692;23.278;2023-05-31T09:58:05;95104.22;;;23.52;65.74
6132;BME280;3097;42.692;23.278;2023-05-31T10:00:31;95102.00;;;23.32;66.99
6132;BME280;3097;42.692;23.278;2023-05-31T10:02:56;95094.22;;;23.27;66.97
6132;BME280;3097;42.692;23.278;2023-05-31T10:05:22;95035.31;;;23.01;65.22
6132;BME280;3097;42.692;23.278;2023-05-31T10:07:53;95105.22;;;23.29;64.53
6132;BME280;3097;42.692;23.278;2023-05-31T10:10:18;95109.78;;;23.37;65.90
6132;BME280;3097;42.692;23.278;2023-05-31T10:12:49;95102.69;;;23.24;66.37
6132;BME280;3097;42.692;23.278;2023-05-31T10:15:26;95100.75;;;23.30;67.06
6132;BME280;3097;42.692;23.278;2023-05-31T10:18:02;95097.16;;;22.98;65.36
6132;BME280;3097;42.692;23.278;2023-05-31T10:20:51;95098.53;;;22.96;66.80
6132;BME280;3097;42.692;23.278;2023-05-31T10:23:21;95102.34;;;22.90;66.32
6132;BME280;3097;42.692;23.278;2023-05-31T10:26:20;95093.78;;;22.84;68.27
6132;BME280;3097;42.692;23.278;2023-05-31T10:31:22;95078.19;;;22.88;67.93
6132;BME280;3097;42.692;23.278;2023-05-31T10:33:53;95078.09;;;22.93;68.27
6132;BME280;3097;42.692;23.278;2023-05-31T10:36:19;95054.34;;;22.84;67.81
6132;BME280;3097;42.692;23.278;2023-05-31T10:38:53;95084.00;;;23.12;68.37
6132;BME280;3097;42.692;23.278;2023-05-31T10:41:23;95087.97;;;23.23;68.78
6132;BME280;3097;42.692;23.278;2023-05-31T10:43:55;95079.75;;;23.38;69.21
6132;BME280;3097;42.692;23.278;2023-05-31T10:46:25;95060.88;;;23.36;69.09
6132;BME280;3097;42.692;23.278;2023-05-31T10:48:55;95078.31;;;23.68;67.51
6132;BME280;3097;42.692;23.278;2023-05-31T10:51:41;95089.53;;;23.74;64.86
6132;BME280;3097;42.692;23.278;2023-05-31T10:54:08;95081.28;;;23.67;63.49
6132;BME280;3097;42.692;23.278;2023-05-31T10:56:37;95072.16;;;23.50;64.86
6132;BME280;3097;42.692;23.278;2023-05-31T10:59:05;95091.06;;;23.52;63.30
6132;BME280;3097;42.692;23.278;2023-05-31T11:01:35;95088.75;;;23.37;60.49
6132;BME280;3097;42.692;23.278;2023-05-31T11:04:00;95087.47;;;23.35;62.69
6132;BME280;3097;42.692;23.278;2023-05-31T11:06:28;95084.63;;;23.31;63.09
6132;BME280;3097;42.692;23.278;2023-05-31T11:09:12;95086.19;;;23.32;65.12
6132;BME280;3097;42.692;23.278;2023-05-31T11:14:23;95075.06;;;22.99;69.13
6132;BME280;3097;42.692;23.278;2023-05-31T11:19:35;95066.50;;;23.07;68.95
6132;BME280;3097;42.692;23.278;2023-05-31T11:22:07;95062.22;;;22.98;70.82
6132;BME280;3097;42.692;23.278;2023-05-31T11:27:02;95058.72;;;22.89;70.09
6132;BME280;3097;42.692;23.278;2023-05-31T11:32:18;95052.19;;;23.00;70.96
6132;BME280;3097;42.692;23.278;2023-05-31T11:37:16;95035.19;;;23.20;69.47
6132;BME280;3097;42.692;23.278;2023-05-31T11:39:44;95046.31;;;23.39;69.06
6132;BME280;3097;42.692;23.278;2023-05-31T11:42:11;95035.06;;;23.25;67.60
6132;BME280;3097;42.692;23.278;2023-05-31T11:44:44;95043.66;;;23.30;65.76
6132;BME280;3097;42.692;23.278;2023-05-31T11:47:20;95045.50;;;23.16;65.57
6132;BME280;3097;42.692;23.278;2023-05-31T11:49:47;95035.38;;;23.09;65.71
6132;BME280;3097;42.692;23.278;2023-05-31T11:52:17;95042.09;;;23.15;65.08
6132;BME280;3097;42.692;23.278;2023-05-31T11:54:43;95053.66;;;22.92;65.59
6132;BME280;3097;42.692;23.278;2023-05-31T11:57:11;95025.69;;;22.69;67.43
6132;BME280;3097;42.692;23.278;2023-05-31T11:59:38;95026.09;;;22.62;69.31
6132;BME280;3097;42.692;23.278;2023-05-31T12:02:06;95040.47;;;22.65;69.40
6132;BME280;3097;42.692;23.278;2023-05-31T12:04:32;95035.22;;;22.51;69.93
6132;BME280;3097;42.692;23.278;2023-05-31T12:06:58;95039.03;;;22.45;70.73
6132;BME280;3097;42.692;23.278;2023-05-31T12:09:24;95043.69;;;22.34;70.06
6132;BME280;3097;42.692;23.278;2023-05-31T12:11:50;95032.16;;;22.03;70.63
6132;BME280;3097;42.692;23.278;2023-05-31T12:14:16;95034.59;;;21.99;71.82
6132;BME280;3097;42.692;23.278;2023-05-31T12:16:41;95047.72;;;21.99;73.09
6132;BME280;3097;42.692;23.278;2023-05-31T12:19:13;95045.50;;;21.88;73.17
6132;BME280;3097;42.692;23.278;2023-05-31T12:21:38;95042.16;;;21.69;72.46
6132;BME280;3097;42.692;23.278;2023-05-31T12:24:13;95058.19;;;21.48;73.25
6132;BME280;3097;42.692;23.278;2023-05-31T12:26:39;95048.41;;;21.35;74.91
6132;BME280;3097;42.692;23.278;2023-05-31T12:29:05;95024.97;;;21.25;76.04
6132;BME280;3097;42.692;23.278;2023-05-31T12:31:34;95027.22;;;21.32;71.94
6132;BME280;3097;42.692;23.278;2023-05-31T12:34:09;95028.16;;;21.22;71.91
6132;BME280;3097;42.692;23.278;2023-05-31T12:36:46;95037.56;;;21.04;73.58
6132;BME280;3097;42.692;23.278;2023-05-31T12:39:14;95020.66;;;20.92;76.53
6132;BME280;3097;42.692;23.278;2023-05-31T12:41:43;95031.88;;;20.97;78.40
6132;BME280;3097;42.692;23.278;2023-05-31T12:44:09;94997.41;;;20.85;79.47
6132;BME280;3097;42.692;23.278;2023-05-31T12:46:42;95029.00;;;21.17;80.17
6132;BME280;3097;42.692;23.278;2023-05-31T12:49:14;95021.56;;;21.24;80.21
6132;BME280;3097;42.692;23.278;2023-05-31T12:51:41;95030.34;;;21.34;81.09
6132;BME280;3097;42.692;23.278;2023-05-31T12:54:15;95018.13;;;21.43;80.89
6132;BME280;3097;42.692;23.278;2023-05-31T12:56:42;95026.34;;;21.55;80.31
6132;BME280;3097;42.692;23.278;2023-05-31T12:59:07;95034.72;;;21.57;79.50
6132;BME280;3097;42.692;23.278;2023-05-31T13:01:35;95031.03;;;21.58;80.67
6132;BME280;3097;42.692;23.278;2023-05-31T13:04:01;95031.78;;;21.58;80.83
6132;BME280;3097;42.692;23.278;2023-05-31T13:06:26;95030.47;;;21.61;81.62
6132;BME280;3097;42.692;23.278;2023-05-31T13:08:52;95038.66;;;21.73;83.11
6132;BME280;3097;42.692;23.278;2023-05-31T13:11:17;95043.19;;;21.86;85.68
6132;BME280;3097;42.692;23.278;2023-05-31T13:13:43;95035.78;;;21.88;84.56
6132;BME280;3097;42.692;23.278;2023-05-31T13:16:08;95004.84;;;21.72;83.51
6132;BME280;3097;42.692;23.278;2023-05-31T13:18:34;95028.41;;;21.90;84.87
6132;BME280;3097;42.692;23.278;2023-05-31T13:21:00;95027.34;;;21.91;85.04
6132;BME280;3097;42.692;23.278;2023-05-31T13:23:25;95023.25;;;21.85;83.16
6132;BME280;3097;42.692;23.278;2023-05-31T13:25:51;95038.09;;;21.76;82.81
6132;BME280;3097;42.692;23.278;2023-05-31T13:28:17;95045.03;;;21.67;83.49
6132;BME280;3097;42.692;23.278;2023-05-31T13:30:43;95044.13;;;21.58;84.39
6132;BME280;3097;42.692;23.278;2023-05-31T13:33:08;95037.81;;;21.59;81.74
6132;BME280;3097;42.692;23.278;2023-05-31T13:35:34;95009.63;;;21.13;77.02
6132;BME280;3097;42.692;23.278;2023-05-31T13:38:01;95072.38;;;20.86;73.01